sensor_id;sensor_type;location;lat;lon;timestamp;temperature;humidity
6206;DHT22;3136;48.788;9.772;2023-03-16T00:00:14;-1.70;75.60
6206;DHT22;3136;48.788;9.772;2023-03-16T00:02:41;-1.70;81.30
6206;DHT22;3136;48.788;9.772;2023-03-16T00:05:08;-1.70;76.90
6206;DHT22;3136;48.788;9.772;2023-03-16T00:07:34;-1.70;88.70
6206;DHT22;3136;48.788;9.772;2023-03-16T00:10:00;-1.70;99.90
6206;DHT22;3136;48.788;9.772;2023-03-16T00:12:26;-1.80;99.90
6206;DHT22;3136;48.788;9.772;2023-03-16T00:14:52;-1.80;99.90
6206;DHT22;3136;48.788;9.772;2023-03-16T00:17:19;-1.70;99.90
6206;DHT22;3136;48.788;9.772;2023-03-16T00:20:10;-1.80;99.90
6206;DHT22;3136;48.788;9.772;2023-03-16T00:22:36;-1.80;99.90
6206;DHT22;3136;48.788;9.772;2023-03-16T00:25:01;-1.70;99.90
6206;DHT22;3136;48.788;9.772;2023-03-16T00:27:28;-1.80;99.90
6206;DHT22;3136;48.788;9.772;2023-03-16T00:29:54;-1.80;99.90
6206;DHT22;3136;48.788;9.772;2023-03-16T00:32:25;-1.80;99.90
6206;DHT22;3136;48.788;9.772;2023-03-16T00:34:52;-1.80;99.90
6206;DHT22;3136;48.788;9.772;2023-03-16T00:37:21;-1.80;99.90
6206;DHT22;3136;48.788;9.772;2023-03-16T00:39:48;-1.80;99.90
6206;DHT22;3136;48.788;9.772;2023-03-16T00:42:15;-1.80;99.90
6206;DHT22;3136;48.788;9.772;2023-03-16T00:44:41;-1.80;99.90
6206;DHT22;3136;48.788;9.772;2023-03-16T00:47:08;-1.80;99.90
6206;DHT22;3136;48.788;9.772;2023-03-16T00:49:35;-1.80;99.90
6206;DHT22;3136;48.788;9.772;2023-03-16T00:52:02;-1.80;99.90
6206;DHT22;3136;48.788;9.772;2023-03-16T00:54:28;-1.80;99.90
6206;DHT22;3136;48.788;9.772;2023-03-16T00:56:54;-1.80;99.90
6206;DHT22;3136;48.788;9.772;2023-03-16T00:59:20;-1.80;99.90
6206;DHT22;3136;48.788;9.772;2023-03-16T01:01:46;-1.80;99.90
6206;DHT22;3136;48.788;9.772;2023-03-16T01:04:12;-1.80;99.90
6206;DHT22;3136;48.788;9.772;2023-03-16T01:06:38;-1.80;99.90
6206;DHT22;3136;48.788;9.772;2023-03-16T01:09:04;-1.80;99.90
6206;DHT22;3136;48.788;9.772;2023-03-16T01:11:30;-1.90;99.90
6206;DHT22;3136;48.788;9.772;2023-03-16T01:13:58;-1.90;99.90
6206;DHT22;3136;48.788;9.772;2023-03-16T01:16:24;-1.90;99.90
6206;DHT22;3136;48.788;9.772;2023-03-16T01:18:50;-2.00;99.90
6206;DHT22;3136;48.788;9.772;2023-03-16T01:21:21;-2.00;99.90
6206;DHT22;3136;48.788;9.772;2023-03-16T01:23:47;-2.00;99.90
6206;DHT22;3136;48.788;9.772;2023-03-16T01:26:12;-2.00;99.90
6206;DHT22;3136;48.788;9.772;2023-03-16T01:28:41;-2.00;99.90
6206;DHT22;3136;48.788;9.772;2023-03-16T01:31:10;-2.00;99.90
6206;DHT22;3136;48.788;9.772;2023-03-16T01:33:37;-2.00;99.90
6206;DHT22;3136;48.788;9.772;2023-03-16T01:36:11;-2.00;99.90
6206;DHT22;3136;48.788;9.772;2023-03-16T01:38:37;-2.10;99.90
6206;DHT22;3136;48.788;9.772;2023-03-16T01:41:03;-2.10;99.90
6206;DHT22;3136;48.788;9.772;2023-03-16T01:43:31;-2.10;99.90
6206;DHT22;3136;48.788;9.772;2023-03-16T01:48:45;-2.10;99.90
6206;DHT22;3136;48.788;9.772;2023-03-16T01:51:16;-2.10;99.90
6206;DHT22;3136;48.788;9.772;2023-03-16T01:53:46;-2.00;99.90
6206;DHT22;3136;48.788;9.772;2023-03-16T01:56:17;-2.10;99.90
6206;DHT22;3136;48.788;9.772;2023-03-16T01:58:43;-2.10;99.90
6206;DHT22;3136;48.788;9.772;2023-03-16T02:01:11;-2.10;99.90
6206;DHT22;3136;48.788;9.772;2023-03-16T02:03:38;-2.10;99.90
6206;DHT22;3136;48.788;9.772;2023-03-16T02:06:18;-2.10;99.90
6206;DHT22;3136;48.788;9.772;2023-03-16T02:08:46;-2.20;99.90
6206;DHT22;3136;48.788;9.772;2023-03-16T02:11:12;-2.20;99.90
6206;DHT22;3136;48.788;9.772;2023-03-16T02:13:43;-2.20;99.90
6206;DHT22;3136;48.788;9.772;2023-03-16T02:16:09;-2.30;99.90
6206;DHT22;3136;48.788;9.772;2023-03-16T02:18:36;-2.30;99.90
6206;DHT22;3136;48.788;9.772;2023-03-16T02:21:34;-2.30;99.90
6206;DHT22;3136;48.788;9.772;2023-03-16T02:24:02;-2.30;99.90
6206;DHT22;3136;48.788;9.772;2023-03-16T02:26:49;-2.30;99.90
6206;DHT22;3136;48.788;9.772;2023-03-16T02:29:40;-2.30;99.90
6206;DHT22;3136;48.788;9.772;2023-03-16T02:32:06;-2.30;99.90
6206;DHT22;3136;48.788;9.772;2023-03-16T02:34:33;-2.30;99.90
6206;DHT22;3136;48.788;9.772;2023-03-16T02:36:59;-2.30;99.90
6206;DHT22;3136;48.788;9.772;2023-03-16T02:39:25;-2.40;99.90
6206;DHT22;3136;48.788;9.772;2023-03-16T02:41:51;-2.40;99.90
6206;DHT22;3136;48.788;9.772;2023-03-16T02:44:21;-2.40;99.90
6206;DHT22;3136;48.788;9.772;2023-03-16T02:46:49;-2.40;99.90
6206;DHT22;3136;48.788;9.772;2023-03-16T02:51:44;-2.50;99.90
6206;DHT22;3136;48.788;9.772;2023-03-16T02:54:10;-2.50;99.90
6206;DHT22;3136;48.788;9.772;2023-03-16T02:56:35;-2.40;99.90
6206;DHT22;3136;48.788;9.772;2023-03-16T02:59:01;-2.50;99.90
6206;DHT22;3136;48.788;9.772;2023-03-16T03:01:26;-2.40;99.90
6206;DHT22;3136;48.788;9.772;2023-03-16T03:03:52;-2.50;99.90
6206;DHT22;3136;48.788;9.772;2023-03-16T03:06:18;-2.50;99.90
6206;DHT22;3136;48.788;9.772;2023-03-16T03:08:43;-2.50;99.90
6206;DHT22;3136;48.788;9.772;2023-03-16T03:11:09;-2.60;99.90
6206;DHT22;3136;48.788;9.772;2023-03-16T03:13:35;-2.60;99.90
6206;DHT22;3136;48.788;9.772;2023-03-16T03:16:02;-2.60;99.90
6206;DHT22;3136;48.788;9.772;2023-03-16T03:18:28;-2.60;99.90
6206;DHT22;3136;48.788;9.772;2023-03-16T03:20:54;-2.60;99.90
6206;DHT22;3136;48.788;9.772;2023-03-16T03:23:19;-2.60;99.90
6206;DHT22;3136;48.788;9.772;2023-03-16T03:25:45;-2.60;99.90
6206;DHT22;3136;48.788;9.772;2023-03-16T03:28:12;-2.60;99.90
6206;DHT22;3136;48.788;9.772;2023-03-16T03:30:37;-2.60;99.90
6206;DHT22;3136;48.788;9.772;2023-03-16T03:33:03;-2.60;99.90
6206;DHT22;3136;48.788;9.772;2023-03-16T03:35:29;-2.70;99.90
6206;DHT22;3136;48.788;9.772;2023-03-16T03:37:54;-2.60;99.90
6206;DHT22;3136;48.788;9.772;2023-03-16T03:40:20;-2.60;99.90
6206;DHT22;3136;48.788;9.772;2023-03-16T03:42:46;-2.60;99.90
6206;DHT22;3136;48.788;9.772;2023-03-16T03:45:13;-2.70;99.90
6206;DHT22;3136;48.788;9.772;2023-03-16T03:47:40;-2.70;99.90
6206;DHT22;3136;48.788;9.772;2023-03-16T03:50:06;-2.70;99.90
6206;DHT22;3136;48.788;9.772;2023-03-16T03:52:32;-2.80;99.90
6206;DHT22;3136;48.788;9.772;2023-03-16T03:54:58;-2.70;99.90
6206;DHT22;3136;48.788;9.772;2023-03-16T03:57:23;-2.70;99.90
6206;DHT22;3136;48.788;9.772;2023-03-16T03:59:49;-1.80;99.90
6206;DHT22;3136;48.788;9.772;2023-03-16T04:02:15;-2.80;99.90
6206;DHT22;3136;48.788;9.772;2023-03-16T04:04:42;-2.80;99.90
6206;DHT22;3136;48.788;9.772;2023-03-16T04:07:08;-2.80;99.90
6206;DHT22;3136;48.788;9.772;2023-03-16T04:09:34;-2.80;99.90
6206;DHT22;3136;48.788;9.772;2023-03-16T04:12:01;-2.80;1.00
6206;DHT22;3136;48.788;9.772;2023-03-16T04:14:27;-2.80;1.00
6206;DHT22;3136;48.788;9.772;2023-03-16T04:16:53;-2.80;1.00
6206;DHT22;3136;48.788;9.772;2023-03-16T04:19:22;-2.80;1.00
6206;DHT22;3136;48.788;9.772;2023-03-16T04:21:48;-2.90;99.90
6206;DHT22;3136;48.788;9.772;2023-03-16T04:24:14;-2.80;99.90
6206;DHT22;3136;48.788;9.772;2023-03-16T04:26:41;-2.90;1.00
6206;DHT22;3136;48.788;9.772;2023-03-16T04:29:06;-2.90;1.00
6206;DHT22;3136;48.788;9.772;2023-03-16T04:31:32;-2.90;1.00
6206;DHT22;3136;48.788;9.772;2023-03-16T04:33:58;-2.90;1.00
6206;DHT22;3136;48.788;9.772;2023-03-16T04:36:23;-2.90;99.90
6206;DHT22;3136;48.788;9.772;2023-03-16T04:38:49;-2.90;99.90
6206;DHT22;3136;48.788;9.772;2023-03-16T04:41:16;-2.90;99.90
6206;DHT22;3136;48.788;9.772;2023-03-16T04:43:42;-2.90;99.90
6206;DHT22;3136;48.788;9.772;2023-03-16T04:46:08;-2.90;99.90
6206;DHT22;3136;48.788;9.772;2023-03-16T04:48:34;-2.90;99.90
6206;DHT22;3136;48.788;9.772;2023-03-16T04:51:00;-2.90;1.00
6206;DHT22;3136;48.788;9.772;2023-03-16T04:53:28;-2.90;1.00
6206;DHT22;3136;48.788;9.772;2023-03-16T04:55:54;-2.90;1.00
6206;DHT22;3136;48.788;9.772;2023-03-16T04:58:20;-2.90;1.00
6206;DHT22;3136;48.788;9.772;2023-03-16T05:00:47;-2.90;1.00
6206;DHT22;3136;48.788;9.772;2023-03-16T05:03:13;-2.90;1.00
6206;DHT22;3136;48.788;9.772;2023-03-16T05:05:39;-2.90;1.00
6206;DHT22;3136;48.788;9.772;2023-03-16T05:08:05;-2.90;1.00
6206;DHT22;3136;48.788;9.772;2023-03-16T05:10:32;-2.90;1.00
6206;DHT22;3136;48.788;9.772;2023-03-16T05:12:59;-2.90;1.00
6206;DHT22;3136;48.788;9.772;2023-03-16T05:15:25;-2.90;99.90
6206;DHT22;3136;48.788;9.772;2023-03-16T05:17:51;-2.90;1.00
6206;DHT22;3136;48.788;9.772;2023-03-16T05:20:17;-2.90;1.00
6206;DHT22;3136;48.788;9.772;2023-03-16T05:22:44;-2.90;1.00
6206;DHT22;3136;48.788;9.772;2023-03-16T05:25:11;-2.90;1.00
6206;DHT22;3136;48.788;9.772;2023-03-16T05:27:44;-2.80;1.00
6206;DHT22;3136;48.788;9.772;2023-03-16T05:30:11;-2.80;1.00
6206;DHT22;3136;48.788;9.772;2023-03-16T05:32:39;-2.90;1.00
6206;DHT22;3136;48.788;9.772;2023-03-16T05:35:05;-2.80;1.00
6206;DHT22;3136;48.788;9.772;2023-03-16T05:37:32;-2.90;1.00
6206;DHT22;3136;48.788;9.772;2023-03-16T05:39:59;-2.80;1.00
6206;DHT22;3136;48.788;9.772;2023-03-16T05:42:24;-2.80;1.00
6206;DHT22;3136;48.788;9.772;2023-03-16T05:44:56;-2.80;1.00
6206;DHT22;3136;48.788;9.772;2023-03-16T05:47:21;-2.70;1.00
6206;DHT22;3136;48.788;9.772;2023-03-16T05:49:47;-2.70;1.00
6206;DHT22;3136;48.788;9.772;2023-03-16T05:52:12;-2.70;1.00
6206;DHT22;3136;48.788;9.772;2023-03-16T05:54:38;-2.70;1.00
6206;DHT22;3136;48.788;9.772;2023-03-16T05:57:04;-2.70;1.00
6206;DHT22;3136;48.788;9.772;2023-03-16T05:59:31;-2.70;1.00
6206;DHT22;3136;48.788;9.772;2023-03-16T06:01:57;-2.70;1.00
6206;DHT22;3136;48.788;9.772;2023-03-16T06:04:22;-2.60;1.00
6206;DHT22;3136;48.788;9.772;2023-03-16T06:06:48;-2.60;1.00
6206;DHT22;3136;48.788;9.772;2023-03-16T06:09:13;-2.50;1.00
6206;DHT22;3136;48.788;9.772;2023-03-16T06:11:39;-2.50;1.00
6206;DHT22;3136;48.788;9.772;2023-03-16T06:14:04;-2.50;1.00
6206;DHT22;3136;48.788;9.772;2023-03-16T06:16:30;-2.50;1.00
6206;DHT22;3136;48.788;9.772;2023-03-16T06:18:55;-2.40;1.00
6206;DHT22;3136;48.788;9.772;2023-03-16T06:21:22;-2.30;1.00
6206;DHT22;3136;48.788;9.772;2023-03-16T06:23:47;-2.30;1.00
6206;DHT22;3136;48.788;9.772;2023-03-16T06:26:13;-2.30;1.00
6206;DHT22;3136;48.788;9.772;2023-03-16T06:28:39;-2.30;1.00
6206;DHT22;3136;48.788;9.772;2023-03-16T06:31:06;-2.20;1.00
6206;DHT22;3136;48.788;9.772;2023-03-16T06:33:31;-2.20;1.00
6206;DHT22;3136;48.788;9.772;2023-03-16T06:35:57;-1.80;1.00
6206;DHT22;3136;48.788;9.772;2023-03-16T06:38:22;-2.10;1.00
6206;DHT22;3136;48.788;9.772;2023-03-16T06:40:52;-2.00;1.00
6206;DHT22;3136;48.788;9.772;2023-03-16T06:43:18;-2.00;1.00
6206;DHT22;3136;48.788;9.772;2023-03-16T06:45:43;-1.90;1.00
6206;DHT22;3136;48.788;9.772;2023-03-16T06:48:09;-1.90;1.00
6206;DHT22;3136;48.788;9.772;2023-03-16T06:50:35;-1.70;1.00
6206;DHT22;3136;48.788;9.772;2023-03-16T06:53:01;-1.70;1.00
6206;DHT22;3136;48.788;9.772;2023-03-16T06:55:26;-1.60;1.00
6206;DHT22;3136;48.788;9.772;2023-03-16T06:57:52;-1.60;1.00
6206;DHT22;3136;48.788;9.772;2023-03-16T07:00:18;-1.50;1.00
6206;DHT22;3136;48.788;9.772;2023-03-16T07:02:43;-1.40;1.00
6206;DHT22;3136;48.788;9.772;2023-03-16T07:05:10;-1.20;1.00
6206;DHT22;3136;48.788;9.772;2023-03-16T07:07:42;-1.20;1.00
6206;DHT22;3136;48.788;9.772;2023-03-16T07:10:11;-1.20;1.00
6206;DHT22;3136;48.788;9.772;2023-03-16T07:12:37;-1.10;1.00
6206;DHT22;3136;48.788;9.772;2023-03-16T07:15:03;-1.00;1.00
6206;DHT22;3136;48.788;9.772;2023-03-16T07:17:28;-1.00;1.00
6206;DHT22;3136;48.788;9.772;2023-03-16T07:19:54;-0.90;1.00
6206;DHT22;3136;48.788;9.772;2023-03-16T07:22:20;-0.80;1.00
6206;DHT22;3136;48.788;9.772;2023-03-16T07:24:46;-0.70;1.00
6206;DHT22;3136;48.788;9.772;2023-03-16T07:27:16;-0.60;1.00
6206;DHT22;3136;48.788;9.772;2023-03-16T07:29:41;-0.50;1.00
6206;DHT22;3136;48.788;9.772;2023-03-16T07:32:07;-0.50;1.00
6206;DHT22;3136;48.788;9.772;2023-03-16T07:34:33;-0.30;1.00
6206;DHT22;3136;48.788;9.772;2023-03-16T07:36:59;-0.20;1.00
6206;DHT22;3136;48.788;9.772;2023-03-16T07:39:25;-0.10;1.00
6206;DHT22;3136;48.788;9.772;2023-03-16T07:41:50;0.10;1.00
6206;DHT22;3136;48.788;9.772;2023-03-16T07:44:16;0.20;1.00
6206;DHT22;3136;48.788;9.772;2023-03-16T07:46:41;0.40;1.00
6206;DHT22;3136;48.788;9.772;2023-03-16T07:49:07;0.50;1.00
6206;DHT22;3136;48.788;9.772;2023-03-16T07:51:34;0.60;1.00
6206;DHT22;3136;48.788;9.772;2023-03-16T07:54:00;0.70;1.00
6206;DHT22;3136;48.788;9.772;2023-03-16T07:56:25;0.90;1.00
6206;DHT22;3136;48.788;9.772;2023-03-16T07:58:51;1.00;1.00
6206;DHT22;3136;48.788;9.772;2023-03-16T08:01:16;1.10;1.00
6206;DHT22;3136;48.788;9.772;2023-03-16T08:03:42;1.30;1.00
6206;DHT22;3136;48.788;9.772;2023-03-16T08:06:08;1.40;1.00
6206;DHT22;3136;48.788;9.772;2023-03-16T08:08:35;1.60;1.00
6206;DHT22;3136;48.788;9.772;2023-03-16T08:11:00;1.70;1.00
6206;DHT22;3136;48.788;9.772;2023-03-16T08:13:26;1.90;99.90
6206;DHT22;3136;48.788;9.772;2023-03-16T08:15:52;2.10;99.90
6206;DHT22;3136;48.788;9.772;2023-03-16T08:18:23;2.20;70.60
6206;DHT22;3136;48.788;9.772;2023-03-16T08:20:49;2.40;1.00
6206;DHT22;3136;48.788;9.772;2023-03-16T08:23:15;2.60;1.00
6206;DHT22;3136;48.788;9.772;2023-03-16T08:25:41;2.70;1.00
6206;DHT22;3136;48.788;9.772;2023-03-16T08:28:07;2.90;99.90
6206;DHT22;3136;48.788;9.772;2023-03-16T08:30:34;3.00;1.00
6206;DHT22;3136;48.788;9.772;2023-03-16T08:33:00;3.10;1.00
6206;DHT22;3136;48.788;9.772;2023-03-16T08:35:27;2.00;98.80
6206;DHT22;3136;48.788;9.772;2023-03-16T08:37:54;3.30;99.90
6206;DHT22;3136;48.788;9.772;2023-03-16T08:40:21;3.50;54.60
6206;DHT22;3136;48.788;9.772;2023-03-16T08:42:50;3.60;99.90
6206;DHT22;3136;48.788;9.772;2023-03-16T08:45:15;3.80;36.80
6206;DHT22;3136;48.788;9.772;2023-03-16T08:47:42;4.00;99.90
6206;DHT22;3136;48.788;9.772;2023-03-16T08:50:09;4.00;1.00
6206;DHT22;3136;48.788;9.772;2023-03-16T08:52:35;4.10;99.90
6206;DHT22;3136;48.788;9.772;2023-03-16T08:55:02;4.20;99.90
6206;DHT22;3136;48.788;9.772;2023-03-16T08:57:30;4.30;99.90
6206;DHT22;3136;48.788;9.772;2023-03-16T08:59:57;2.50;99.90
6206;DHT22;3136;48.788;9.772;2023-03-16T09:02:22;4.50;20.30
6206;DHT22;3136;48.788;9.772;2023-03-16T09:04:49;4.60;1.00
6206;DHT22;3136;48.788;9.772;2023-03-16T09:07:14;4.70;1.00
6206;DHT22;3136;48.788;9.772;2023-03-16T09:09:40;4.80;1.00
6206;DHT22;3136;48.788;9.772;2023-03-16T09:12:06;5.00;99.90
6206;DHT22;3136;48.788;9.772;2023-03-16T09:14:32;5.10;99.90
6206;DHT22;3136;48.788;9.772;2023-03-16T09:16:58;5.30;99.90
6206;DHT22;3136;48.788;9.772;2023-03-16T09:19:24;5.60;99.90
6206;DHT22;3136;48.788;9.772;2023-03-16T09:21:49;5.80;99.90
6206;DHT22;3136;48.788;9.772;2023-03-16T09:24:15;5.90;99.90
6206;DHT22;3136;48.788;9.772;2023-03-16T09:26:41;6.00;99.90
6206;DHT22;3136;48.788;9.772;2023-03-16T09:29:08;6.10;99.90
6206;DHT22;3136;48.788;9.772;2023-03-16T09:31:34;6.30;99.90
6206;DHT22;3136;48.788;9.772;2023-03-16T09:34:00;6.40;99.90
6206;DHT22;3136;48.788;9.772;2023-03-16T09:36:26;6.60;99.90
6206;DHT22;3136;48.788;9.772;2023-03-16T09:38:52;6.70;99.90
6206;DHT22;3136;48.788;9.772;2023-03-16T09:41:44;6.80;99.90
6206;DHT22;3136;48.788;9.772;2023-03-16T09:44:45;6.90;99.90
6206;DHT22;3136;48.788;9.772;2023-03-16T09:47:13;7.10;99.90
6206;DHT22;3136;48.788;9.772;2023-03-16T09:49:48;7.30;99.90
6206;DHT22;3136;48.788;9.772;2023-03-16T09:55:33;7.90;99.90
6206;DHT22;3136;48.788;9.772;2023-03-16T09:57:52;8.30;99.90
6206;DHT22;3136;48.788;9.772;2023-03-16T10:05:19;9.00;90.70
6206;DHT22;3136;48.788;9.772;2023-03-16T10:08:01;9.20;89.50
6206;DHT22;3136;48.788;9.772;2023-03-16T10:10:57;9.30;96.40
6206;DHT22;3136;48.788;9.772;2023-03-16T10:13:57;9.60;82.90
6206;DHT22;3136;48.788;9.772;2023-03-16T10:16:35;9.70;76.70
6206;DHT22;3136;48.788;9.772;2023-03-16T10:21:51;9.60;72.60
6206;DHT22;3136;48.788;9.772;2023-03-16T10:26:56;8.70;67.50
6206;DHT22;3136;48.788;9.772;2023-03-16T10:29:30;10.20;64.80
6206;DHT22;3136;48.788;9.772;2023-03-16T10:32:20;10.60;64.80
6206;DHT22;3136;48.788;9.772;2023-03-16T10:34:53;11.00;62.50
6206;DHT22;3136;48.788;9.772;2023-03-16T10:37:21;11.50;59.30
6206;DHT22;3136;48.788;9.772;2023-03-16T10:39:48;11.80;57.90
6206;DHT22;3136;48.788;9.772;2023-03-16T10:42:19;12.10;56.60
6206;DHT22;3136;48.788;9.772;2023-03-16T10:44:46;12.40;55.00
6206;DHT22;3136;48.788;9.772;2023-03-16T10:47:21;13.10;53.20
6206;DHT22;3136;48.788;9.772;2023-03-16T10:49:48;13.50;51.70
6206;DHT22;3136;48.788;9.772;2023-03-16T10:52:44;14.00;52.10
6206;DHT22;3136;48.788;9.772;2023-03-16T10:55:25;14.00;50.10
6206;DHT22;3136;48.788;9.772;2023-03-16T10:57:55;14.20;50.90
6206;DHT22;3136;48.788;9.772;2023-03-16T11:00:28;14.50;49.60
6206;DHT22;3136;48.788;9.772;2023-03-16T11:02:57;14.70;48.80
6206;DHT22;3136;48.788;9.772;2023-03-16T11:05:31;14.90;47.10
6206;DHT22;3136;48.788;9.772;2023-03-16T11:08:16;15.20;46.70
6206;DHT22;3136;48.788;9.772;2023-03-16T11:10:46;15.70;45.60
6206;DHT22;3136;48.788;9.772;2023-03-16T11:13:19;15.90;45.60
6206;DHT22;3136;48.788;9.772;2023-03-16T11:20:52;15.20;44.90
6206;DHT22;3136;48.788;9.772;2023-03-16T11:23:25;15.20;42.50
6206;DHT22;3136;48.788;9.772;2023-03-16T11:25:55;15.30;41.40
6206;DHT22;3136;48.788;9.772;2023-03-16T11:31:12;14.60;42.40
6206;DHT22;3136;48.788;9.772;2023-03-16T11:33:41;14.70;40.80
6206;DHT22;3136;48.788;9.772;2023-03-16T11:48:14;16.70;37.00
6206;DHT22;3136;48.788;9.772;2023-03-16T11:50:27;16.80;57.60
6206;DHT22;3136;48.788;9.772;2023-03-16T11:53:06;17.40;36.60
6206;DHT22;3136;48.788;9.772;2023-03-16T11:55:38;17.60;36.20
6206;DHT22;3136;48.788;9.772;2023-03-16T11:58:32;17.60;35.80
6206;DHT22;3136;48.788;9.772;2023-03-16T12:01:41;17.90;35.80
6206;DHT22;3136;48.788;9.772;2023-03-16T12:04:20;18.60;36.60
6206;DHT22;3136;48.788;9.772;2023-03-16T12:15:29;19.90;33.40
6206;DHT22;3136;48.788;9.772;2023-03-16T12:18:00;19.70;32.20
6206;DHT22;3136;48.788;9.772;2023-03-16T12:20:32;19.80;31.50
6206;DHT22;3136;48.788;9.772;2023-03-16T12:25:55;20.50;31.30
6206;DHT22;3136;48.788;9.772;2023-03-16T12:28:26;20.70;29.90
6206;DHT22;3136;48.788;9.772;2023-03-16T12:31:12;20.60;30.30
6206;DHT22;3136;48.788;9.772;2023-03-16T12:34:06;20.90;29.80
6206;DHT22;3136;48.788;9.772;2023-03-16T12:39:20;20.80;28.40
6206;DHT22;3136;48.788;9.772;2023-03-16T12:44:51;20.40;28.00
6206;DHT22;3136;48.788;9.772;2023-03-16T12:50:05;20.70;27.60
6206;DHT22;3136;48.788;9.772;2023-03-16T12:52:42;20.90;28.00
6206;DHT22;3136;48.788;9.772;2023-03-16T12:55:19;20.80;25.90
6206;DHT22;3136;48.788;9.772;2023-03-16T12:57:47;20.70;26.30
6206;DHT22;3136;48.788;9.772;2023-03-16T13:00:14;20.90;27.70
6206;DHT22;3136;48.788;9.772;2023-03-16T13:02:43;20.60;25.50
6206;DHT22;3136;48.788;9.772;2023-03-16T13:05:15;20.40;25.20
6206;DHT22;3136;48.788;9.772;2023-03-16T13:07:50;20.50;25.10
6206;DHT22;3136;48.788;9.772;2023-03-16T13:10:17;20.10;24.00
6206;DHT22;3136;48.788;9.772;2023-03-16T13:12:46;20.60;23.40
6206;DHT22;3136;48.788;9.772;2023-03-16T13:17:40;21.20;23.60
6206;DHT22;3136;48.788;9.772;2023-03-16T13:22:47;21.20;22.70
6206;DHT22;3136;48.788;9.772;2023-03-16T13:25:22;21.70;24.00
6206;DHT22;3136;48.788;9.772;2023-03-16T13:27:53;21.80;23.00
6206;DHT22;3136;48.788;9.772;2023-03-16T13:30:23;22.90;23.70
6206;DHT22;3136;48.788;9.772;2023-03-16T13:32:55;22.60;22.30
6206;DHT22;3136;48.788;9.772;2023-03-16T13:35:26;22.50;23.50
6206;DHT22;3136;48.788;9.772;2023-03-16T13:37:52;21.80;21.90
6206;DHT22;3136;48.788;9.772;2023-03-16T13:40:21;21.10;21.40
6206;DHT22;3136;48.788;9.772;2023-03-16T13:42:49;20.60;21.10
6206;DHT22;3136;48.788;9.772;2023-03-16T13:45:31;19.70;20.20
6206;DHT22;3136;48.788;9.772;2023-03-16T13:47:59;18.80;19.50
6206;DHT22;3136;48.788;9.772;2023-03-16T13:50:25;18.20;19.00
6206;DHT22;3136;48.788;9.772;2023-03-16T13:52:58;18.10;18.70
6206;DHT22;3136;48.788;9.772;2023-03-16T13:55:33;18.40;18.70
6206;DHT22;3136;48.788;9.772;2023-03-16T13:58:00;19.30;20.20
6206;DHT22;3136;48.788;9.772;2023-03-16T14:00:35;20.60;20.90
6206;DHT22;3136;48.788;9.772;2023-03-16T14:03:14;21.70;20.30
6206;DHT22;3136;48.788;9.772;2023-03-16T14:05:40;22.20;21.20
6206;DHT22;3136;48.788;9.772;2023-03-16T14:10:41;21.80;20.00
6206;DHT22;3136;48.788;9.772;2023-03-16T14:13:09;22.10;19.90
6206;DHT22;3136;48.788;9.772;2023-03-16T14:15:36;22.70;19.80
6206;DHT22;3136;48.788;9.772;2023-03-16T14:18:19;22.50;18.40
6206;DHT22;3136;48.788;9.772;2023-03-16T14:20:54;22.10;19.30
6206;DHT22;3136;48.788;9.772;2023-03-16T14:24:06;22.60;18.40
6206;DHT22;3136;48.788;9.772;2023-03-16T14:26:40;22.40;17.30
6206;DHT22;3136;48.788;9.772;2023-03-16T14:31:44;21.60;17.20
6206;DHT22;3136;48.788;9.772;2023-03-16T14:34:34;21.50;17.40
6206;DHT22;3136;48.788;9.772;2023-03-16T14:37:14;20.60;16.60
6206;DHT22;3136;48.788;9.772;2023-03-16T14:39:42;20.10;15.30
6206;DHT22;3136;48.788;9.772;2023-03-16T14:42:18;19.10;14.40
6206;DHT22;3136;48.788;9.772;2023-03-16T14:44:45;18.20;13.70
6206;DHT22;3136;48.788;9.772;2023-03-16T14:47:28;17.40;13.50
6206;DHT22;3136;48.788;9.772;2023-03-16T14:50:04;16.50;13.80
6206;DHT22;3136;48.788;9.772;2023-03-16T14:52:30;16.10;13.30
6206;DHT22;3136;48.788;9.772;2023-03-16T14:54:57;16.10;14.60
6206;DHT22;3136;48.788;9.772;2023-03-16T14:57:24;15.60;13.30
6206;DHT22;3136;48.788;9.772;2023-03-16T14:59:53;15.40;14.10
6206;DHT22;3136;48.788;9.772;2023-03-16T15:02:29;15.40;13.10
6206;DHT22;3136;48.788;9.772;2023-03-16T15:04:57;16.00;13.90
6206;DHT22;3136;48.788;9.772;2023-03-16T15:07:28;16.30;14.40
6206;DHT22;3136;48.788;9.772;2023-03-16T15:12:31;16.20;13.90
6206;DHT22;3136;48.788;9.772;2023-03-16T15:14:59;15.80;13.60
6206;DHT22;3136;48.788;9.772;2023-03-16T15:17:41;15.90;14.20
6206;DHT22;3136;48.788;9.772;2023-03-16T15:20:21;15.90;14.20
6206;DHT22;3136;48.788;9.772;2023-03-16T15:22:51;15.50;14.40
6206;DHT22;3136;48.788;9.772;2023-03-16T15:25:39;15.20;13.40
6206;DHT22;3136;48.788;9.772;2023-03-16T15:28:14;14.70;13.90
6206;DHT22;3136;48.788;9.772;2023-03-16T15:30:45;14.40;12.40
6206;DHT22;3136;48.788;9.772;2023-03-16T15:33:11;14.00;12.50
6206;DHT22;3136;48.788;9.772;2023-03-16T15:35:37;13.60;12.70
6206;DHT22;3136;48.788;9.772;2023-03-16T15:38:24;13.30;12.20
6206;DHT22;3136;48.788;9.772;2023-03-16T15:40:51;12.90;13.60
6206;DHT22;3136;48.788;9.772;2023-03-16T15:43:19;12.70;14.00
6206;DHT22;3136;48.788;9.772;2023-03-16T15:45:46;12.40;12.90
6206;DHT22;3136;48.788;9.772;2023-03-16T15:48:13;12.30;13.00
6206;DHT22;3136;48.788;9.772;2023-03-16T15:50:41;12.20;13.90
6206;DHT22;3136;48.788;9.772;2023-03-16T15:53:23;12.00;13.60
6206;DHT22;3136;48.788;9.772;2023-03-16T15:55:52;12.10;13.60
6206;DHT22;3136;48.788;9.772;2023-03-16T15:58:22;11.70;14.40
6206;DHT22;3136;48.788;9.772;2023-03-16T16:00:50;11.70;15.40
6206;DHT22;3136;48.788;9.772;2023-03-16T16:03:19;11.70;15.40
6206;DHT22;3136;48.788;9.772;2023-03-16T16:05:44;11.60;16.40
6206;DHT22;3136;48.788;9.772;2023-03-16T16:08:10;11.60;15.60
6206;DHT22;3136;48.788;9.772;2023-03-16T16:10:36;11.50;16.60
6206;DHT22;3136;48.788;9.772;2023-03-16T16:13:01;11.50;16.10
6206;DHT22;3136;48.788;9.772;2023-03-16T16:15:29;11.50;17.20
6206;DHT22;3136;48.788;9.772;2023-03-16T16:17:59;11.30;15.70
6206;DHT22;3136;48.788;9.772;2023-03-16T16:22:52;11.30;16.10
6206;DHT22;3136;48.788;9.772;2023-03-16T16:25:20;11.20;16.10
6206;DHT22;3136;48.788;9.772;2023-03-16T16:27:48;11.20;16.60
6206;DHT22;3136;48.788;9.772;2023-03-16T16:30:26;11.10;17.10
6206;DHT22;3136;48.788;9.772;2023-03-16T16:32:52;11.00;17.90
6206;DHT22;3136;48.788;9.772;2023-03-16T16:35:23;10.90;17.20
6206;DHT22;3136;48.788;9.772;2023-03-16T16:37:50;10.80;17.50
6206;DHT22;3136;48.788;9.772;2023-03-16T16:40:24;10.80;17.90
6206;DHT22;3136;48.788;9.772;2023-03-16T16:43:00;10.70;18.40
6206;DHT22;3136;48.788;9.772;2023-03-16T16:45:28;10.60;19.10
6206;DHT22;3136;48.788;9.772;2023-03-16T16:47:54;10.50;18.80
6206;DHT22;3136;48.788;9.772;2023-03-16T16:50:26;10.40;19.20
6206;DHT22;3136;48.788;9.772;2023-03-16T16:52:53;10.30;20.10
6206;DHT22;3136;48.788;9.772;2023-03-16T16:55:21;10.20;19.50
6206;DHT22;3136;48.788;9.772;2023-03-16T16:57:48;10.10;20.30
6206;DHT22;3136;48.788;9.772;2023-03-16T17:00:24;9.90;21.10
6206;DHT22;3136;48.788;9.772;2023-03-16T17:02:52;9.80;23.80
6206;DHT22;3136;48.788;9.772;2023-03-16T17:05:23;9.60;25.00
6206;DHT22;3136;48.788;9.772;2023-03-16T17:07:51;9.50;27.80
6206;DHT22;3136;48.788;9.772;2023-03-16T17:10:22;9.40;28.20
6206;DHT22;3136;48.788;9.772;2023-03-16T17:12:49;9.20;29.70
6206;DHT22;3136;48.788;9.772;2023-03-16T17:15:25;9.10;35.00
6206;DHT22;3136;48.788;9.772;2023-03-16T17:17:56;8.90;37.70
6206;DHT22;3136;48.788;9.772;2023-03-16T17:20:23;8.80;41.40
6206;DHT22;3136;48.788;9.772;2023-03-16T17:22:51;8.60;58.80
6206;DHT22;3136;48.788;9.772;2023-03-16T17:25:17;8.40;68.10
6206;DHT22;3136;48.788;9.772;2023-03-16T17:27:44;8.20;82.70
6206;DHT22;3136;48.788;9.772;2023-03-16T17:30:26;8.00;88.50
6206;DHT22;3136;48.788;9.772;2023-03-16T17:32:54;7.90;99.90
6206;DHT22;3136;48.788;9.772;2023-03-16T17:35:21;7.80;99.90